sensor_id;sensor_type;location;lat;lon;timestamp;P1;durP1;ratioP1;P2;durP2;ratioP2
6292;SDS011;3179;54.350;10.102;2023-02-21T00:02:18;5.20;;;2.07;;
6292;SDS011;3179;54.350;10.102;2023-02-21T00:05:02;6.50;;;1.83;;
6292;SDS011;3179;54.350;10.102;2023-02-21T00:07:47;5.73;;;1.73;;
6292;SDS011;3179;54.350;10.102;2023-02-21T00:10:31;9.27;;;2.30;;
6292;SDS011;3179;54.350;10.102;2023-02-21T00:13:16;12.20;;;2.23;;
6292;SDS011;3179;54.350;10.102;2023-02-21T00:16:00;11.50;;;2.30;;
6292;SDS011;3179;54.350;10.102;2023-02-21T00:18:46;4.40;;;1.87;;
6292;SDS011;3179;54.350;10.102;2023-02-21T00:21:30;5.20;;;1.53;;
6292;SDS011;3179;54.350;10.102;2023-02-21T00:24:16;8.87;;;2.07;;
6292;SDS011;3179;54.350;10.102;2023-02-21T00:27:01;6.07;;;1.63;;
6292;SDS011;3179;54.350;10.102;2023-02-21T00:29:46;9.83;;;2.53;;
6292;SDS011;3179;54.350;10.102;2023-02-21T00:32:31;8.77;;;3.03;;
6292;SDS011;3179;54.350;10.102;2023-02-21T00:35:17;8.63;;;1.97;;
6292;SDS011;3179;54.350;10.102;2023-02-21T00:38:02;8.27;;;2.30;;
6292;SDS011;3179;54.350;10.102;2023-02-21T00:40:47;7.20;;;2.33;;
6292;SDS011;3179;54.350;10.102;2023-02-21T00:43:32;7.80;;;2.10;;
6292;SDS011;3179;54.350;10.102;2023-02-21T00:46:18;6.17;;;2.27;;
6292;SDS011;3179;54.350;10.102;2023-02-21T00:49:03;7.87;;;1.93;;
6292;SDS011;3179;54.350;10.102;2023-02-21T00:51:49;12.33;;;3.07;;
6292;SDS011;3179;54.350;10.102;2023-02-21T00:54:34;11.63;;;2.77;;
6292;SDS011;3179;54.350;10.102;2023-02-21T00:57:19;10.07;;;2.10;;
6292;SDS011;3179;54.350;10.102;2023-02-21T01:00:03;10.63;;;2.97;;
6292;SDS011;3179;54.350;10.102;2023-02-21T01:02:48;14.83;;;2.90;;
6292;SDS011;3179;54.350;10.102;2023-02-21T01:05:32;10.13;;;2.63;;
6292;SDS011;3179;54.350;10.102;2023-02-21T01:08:18;7.33;;;1.63;;
6292;SDS011;3179;54.350;10.102;2023-02-21T01:11:02;7.93;;;2.43;;
6292;SDS011;3179;54.350;10.102;2023-02-21T01:13:46;12.63;;;2.60;;
6292;SDS011;3179;54.350;10.102;2023-02-21T01:16:31;11.23;;;2.90;;
6292;SDS011;3179;54.350;10.102;2023-02-21T01:19:16;12.90;;;2.30;;
6292;SDS011;3179;54.350;10.102;2023-02-21T01:22:00;11.70;;;3.00;;
6292;SDS011;3179;54.350;10.102;2023-02-21T01:24:48;12.20;;;2.93;;
6292;SDS011;3179;54.350;10.102;2023-02-21T01:27:33;8.20;;;2.43;;
6292;SDS011;3179;54.350;10.102;2023-02-21T01:30:18;15.40;;;3.20;;
6292;SDS011;3179;54.350;10.102;2023-02-21T01:33:02;11.33;;;2.60;;
6292;SDS011;3179;54.350;10.102;2023-02-21T01:35:47;9.93;;;3.00;;
6292;SDS011;3179;54.350;10.102;2023-02-21T01:38:32;11.27;;;2.90;;
6292;SDS011;3179;54.350;10.102;2023-02-21T01:41:18;8.20;;;2.30;;
6292;SDS011;3179;54.350;10.102;2023-02-21T01:44:04;10.80;;;2.70;;
6292;SDS011;3179;54.350;10.102;2023-02-21T01:46:50;7.67;;;2.37;;
6292;SDS011;3179;54.350;10.102;2023-02-21T01:49:35;10.07;;;2.50;;
6292;SDS011;3179;54.350;10.102;2023-02-21T01:52:23;11.70;;;2.67;;
6292;SDS011;3179;54.350;10.102;2023-02-21T01:55:08;12.77;;;2.80;;
6292;SDS011;3179;54.350;10.102;2023-02-21T01:57:55;11.40;;;2.80;;
6292;SDS011;3179;54.350;10.102;2023-02-21T02:00:39;11.50;;;3.37;;
6292;SDS011;3179;54.350;10.102;2023-02-21T02:03:24;8.53;;;2.70;;
6292;SDS011;3179;54.350;10.102;2023-02-21T02:06:09;14.33;;;3.63;;
6292;SDS011;3179;54.350;10.102;2023-02-21T02:08:56;16.30;;;2.60;;
6292;SDS011;3179;54.350;10.102;2023-02-21T02:11:45;13.47;;;2.57;;
6292;SDS011;3179;54.350;10.102;2023-02-21T02:14:50;12.33;;;2.70;;
6292;SDS011;3179;54.350;10.102;2023-02-21T02:17:30;6.67;;;2.67;;
6292;SDS011;3179;54.350;10.102;2023-02-21T02:20:11;11.80;;;3.80;;
6292;SDS011;3179;54.350;10.102;2023-02-21T02:23:01;9.40;;;2.90;;
6292;SDS011;3179;54.350;10.102;2023-02-21T02:28:41;8.50;;;2.10;;
6292;SDS011;3179;54.350;10.102;2023-02-21T02:31:39;9.40;;;2.67;;
6292;SDS011;3179;54.350;10.102;2023-02-21T02:34:36;6.73;;;2.07;;
6292;SDS011;3179;54.350;10.102;2023-02-21T02:37:13;10.10;;;2.27;;
6292;SDS011;3179;54.350;10.102;2023-02-21T02:39:50;11.97;;;3.47;;
6292;SDS011;3179;54.350;10.102;2023-02-21T02:42:30;16.60;;;3.40;;
6292;SDS011;3179;54.350;10.102;2023-02-21T02:45:05;9.70;;;3.10;;
6292;SDS011;3179;54.350;10.102;2023-02-21T02:47:38;6.97;;;2.47;;
6292;SDS011;3179;54.350;10.102;2023-02-21T02:50:11;10.50;;;2.37;;
6292;SDS011;3179;54.350;10.102;2023-02-21T02:52:48;16.20;;;3.70;;
6292;SDS011;3179;54.350;10.102;2023-02-21T02:55:21;21.83;;;3.20;;
6292;SDS011;3179;54.350;10.102;2023-02-21T02:57:56;14.07;;;3.13;;
6292;SDS011;3179;54.350;10.102;2023-02-21T03:00:23;14.20;;;3.23;;
6292;SDS011;3179;54.350;10.102;2023-02-21T03:05:57;15.40;;;3.10;;
6292;SDS011;3179;54.350;10.102;2023-02-21T03:08:34;18.97;;;4.10;;
6292;SDS011;3179;54.350;10.102;2023-02-21T03:11:08;12.37;;;3.50;;
6292;SDS011;3179;54.350;10.102;2023-02-21T03:13:42;19.97;;;3.50;;
6292;SDS011;3179;54.350;10.102;2023-02-21T03:16:19;14.90;;;3.57;;
6292;SDS011;3179;54.350;10.102;2023-02-21T03:18:51;10.80;;;2.73;;
6292;SDS011;3179;54.350;10.102;2023-02-21T03:21:25;12.40;;;2.93;;
6292;SDS011;3179;54.350;10.102;2023-02-21T03:23:56;15.10;;;3.90;;
6292;SDS011;3179;54.350;10.102;2023-02-21T03:26:27;18.93;;;3.73;;
6292;SDS011;3179;54.350;10.102;2023-02-21T03:28:57;13.60;;;3.47;;
6292;SDS011;3179;54.350;10.102;2023-02-21T03:31:28;22.03;;;4.73;;
6292;SDS011;3179;54.350;10.102;2023-02-21T03:34:00;12.63;;;3.60;;
6292;SDS011;3179;54.350;10.102;2023-02-21T03:36:28;17.10;;;3.87;;
6292;SDS011;3179;54.350;10.102;2023-02-21T03:38:56;18.00;;;4.17;;
6292;SDS011;3179;54.350;10.102;2023-02-21T03:41:23;14.80;;;3.57;;
6292;SDS011;3179;54.350;10.102;2023-02-21T03:43:50;21.60;;;4.83;;
6292;SDS011;3179;54.350;10.102;2023-02-21T03:46:17;18.67;;;3.83;;
6292;SDS011;3179;54.350;10.102;2023-02-21T03:48:44;13.80;;;3.37;;
6292;SDS011;3179;54.350;10.102;2023-02-21T03:51:11;19.37;;;3.60;;
6292;SDS011;3179;54.350;10.102;2023-02-21T03:53:39;14.43;;;3.13;;
6292;SDS011;3179;54.350;10.102;2023-02-21T03:56:05;19.17;;;3.20;;
6292;SDS011;3179;54.350;10.102;2023-02-21T03:58:32;19.70;;;4.23;;
6292;SDS011;3179;54.350;10.102;2023-02-21T04:01:00;25.77;;;3.93;;
6292;SDS011;3179;54.350;10.102;2023-02-21T04:03:27;11.50;;;3.60;;
6292;SDS011;3179;54.350;10.102;2023-02-21T04:05:54;22.20;;;3.90;;
6292;SDS011;3179;54.350;10.102;2023-02-21T04:08:21;16.07;;;3.57;;
6292;SDS011;3179;54.350;10.102;2023-02-21T04:10:49;25.13;;;4.53;;
6292;SDS011;3179;54.350;10.102;2023-02-21T04:13:16;22.37;;;4.50;;
6292;SDS011;3179;54.350;10.102;2023-02-21T04:15:44;23.40;;;4.97;;
6292;SDS011;3179;54.350;10.102;2023-02-21T04:18:12;26.63;;;4.50;;
6292;SDS011;3179;54.350;10.102;2023-02-21T04:20:39;18.33;;;4.30;;
6292;SDS011;3179;54.350;10.102;2023-02-21T04:23:06;18.23;;;4.17;;
6292;SDS011;3179;54.350;10.102;2023-02-21T04:25:33;19.30;;;3.30;;
6292;SDS011;3179;54.350;10.102;2023-02-21T04:28:01;32.60;;;4.10;;
6292;SDS011;3179;54.350;10.102;2023-02-21T04:30:27;23.73;;;4.20;;
6292;SDS011;3179;54.350;10.102;2023-02-21T04:32:54;23.13;;;4.20;;
6292;SDS011;3179;54.350;10.102;2023-02-21T04:35:21;21.63;;;4.07;;
6292;SDS011;3179;54.350;10.102;2023-02-21T04:37:48;25.40;;;4.23;;
6292;SDS011;3179;54.350;10.102;2023-02-21T04:40:14;22.43;;;4.53;;
6292;SDS011;3179;54.350;10.102;2023-02-21T04:42:41;25.87;;;5.17;;
6292;SDS011;3179;54.350;10.102;2023-02-21T04:45:09;28.67;;;4.43;;
6292;SDS011;3179;54.350;10.102;2023-02-21T04:47:36;17.57;;;4.30;;
6292;SDS011;3179;54.350;10.102;2023-02-21T04:50:03;16.73;;;3.30;;
6292;SDS011;3179;54.350;10.102;2023-02-21T04:52:30;22.20;;;3.67;;
6292;SDS011;3179;54.350;10.102;2023-02-21T04:54:57;24.00;;;4.93;;
6292;SDS011;3179;54.350;10.102;2023-02-21T04:57:24;19.07;;;4.63;;
6292;SDS011;3179;54.350;10.102;2023-02-21T04:59:55;21.83;;;3.90;;
6292;SDS011;3179;54.350;10.102;2023-02-21T05:02:23;14.10;;;3.90;;
6292;SDS011;3179;54.350;10.102;2023-02-21T05:04:51;26.27;;;4.77;;
6292;SDS011;3179;54.350;10.102;2023-02-21T05:07:17;14.37;;;4.03;;
6292;SDS011;3179;54.350;10.102;2023-02-21T05:09:44;19.57;;;3.80;;
6292;SDS011;3179;54.350;10.102;2023-02-21T05:12:11;22.23;;;4.10;;
6292;SDS011;3179;54.350;10.102;2023-02-21T05:14:38;18.30;;;4.23;;
6292;SDS011;3179;54.350;10.102;2023-02-21T05:17:05;16.37;;;3.93;;
6292;SDS011;3179;54.350;10.102;2023-02-21T05:19:34;15.70;;;3.50;;
6292;SDS011;3179;54.350;10.102;2023-02-21T05:22:01;13.10;;;3.50;;
6292;SDS011;3179;54.350;10.102;2023-02-21T05:24:30;26.20;;;3.83;;
6292;SDS011;3179;54.350;10.102;2023-02-21T05:26:57;21.03;;;4.53;;
6292;SDS011;3179;54.350;10.102;2023-02-21T05:29:24;21.53;;;4.00;;
6292;SDS011;3179;54.350;10.102;2023-02-21T05:31:51;16.17;;;3.50;;
6292;SDS011;3179;54.350;10.102;2023-02-21T05:34:18;19.77;;;3.33;;
6292;SDS011;3179;54.350;10.102;2023-02-21T05:36:46;17.90;;;3.50;;
6292;SDS011;3179;54.350;10.102;2023-02-21T05:39:13;27.47;;;4.33;;
6292;SDS011;3179;54.350;10.102;2023-02-21T05:41:44;20.43;;;4.30;;
6292;SDS011;3179;54.350;10.102;2023-02-21T05:44:12;16.20;;;4.00;;
6292;SDS011;3179;54.350;10.102;2023-02-21T05:46:39;17.13;;;3.93;;
6292;SDS011;3179;54.350;10.102;2023-02-21T05:49:06;22.83;;;5.00;;
6292;SDS011;3179;54.350;10.102;2023-02-21T05:51:34;26.27;;;4.40;;
6292;SDS011;3179;54.350;10.102;2023-02-21T05:54:03;17.90;;;3.67;;
6292;SDS011;3179;54.350;10.102;2023-02-21T05:56:35;17.70;;;4.20;;
6292;SDS011;3179;54.350;10.102;2023-02-21T05:59:04;20.77;;;3.77;;
6292;SDS011;3179;54.350;10.102;2023-02-21T06:01:31;18.47;;;4.03;;
6292;SDS011;3179;54.350;10.102;2023-02-21T06:03:57;16.03;;;3.40;;
6292;SDS011;3179;54.350;10.102;2023-02-21T06:06:24;32.13;;;4.10;;
6292;SDS011;3179;54.350;10.102;2023-02-21T06:08:51;22.40;;;4.50;;
6292;SDS011;3179;54.350;10.102;2023-02-21T06:11:23;27.67;;;4.47;;
6292;SDS011;3179;54.350;10.102;2023-02-21T06:13:51;19.40;;;4.20;;
6292;SDS011;3179;54.350;10.102;2023-02-21T06:16:18;23.80;;;4.80;;
6292;SDS011;3179;54.350;10.102;2023-02-21T06:18:48;15.97;;;3.87;;
6292;SDS011;3179;54.350;10.102;2023-02-21T06:21:15;11.03;;;3.63;;
6292;SDS011;3179;54.350;10.102;2023-02-21T06:23:42;18.53;;;4.30;;
6292;SDS011;3179;54.350;10.102;2023-02-21T06:26:09;14.27;;;3.33;;
6292;SDS011;3179;54.350;10.102;2023-02-21T06:28:37;21.27;;;4.30;;
6292;SDS011;3179;54.350;10.102;2023-02-21T06:31:04;23.67;;;4.20;;
6292;SDS011;3179;54.350;10.102;2023-02-21T06:33:31;19.43;;;4.13;;
6292;SDS011;3179;54.350;10.102;2023-02-21T06:36:01;15.80;;;3.40;;
6292;SDS011;3179;54.350;10.102;2023-02-21T06:38:29;24.77;;;4.80;;
6292;SDS011;3179;54.350;10.102;2023-02-21T06:40:56;13.63;;;3.67;;
6292;SDS011;3179;54.350;10.102;2023-02-21T06:43:23;15.43;;;3.80;;
6292;SDS011;3179;54.350;10.102;2023-02-21T06:45:51;21.93;;;5.00;;
6292;SDS011;3179;54.350;10.102;2023-02-21T06:48:18;18.83;;;3.70;;
6292;SDS011;3179;54.350;10.102;2023-02-21T06:50:45;24.93;;;3.93;;
6292;SDS011;3179;54.350;10.102;2023-02-21T06:53:11;25.20;;;5.57;;
6292;SDS011;3179;54.350;10.102;2023-02-21T06:55:38;15.90;;;3.60;;
6292;SDS011;3179;54.350;10.102;2023-02-21T06:58:05;20.10;;;4.80;;
6292;SDS011;3179;54.350;10.102;2023-02-21T07:00:32;19.27;;;4.10;;
6292;SDS011;3179;54.350;10.102;2023-02-21T07:03:00;25.93;;;4.33;;
6292;SDS011;3179;54.350;10.102;2023-02-21T07:05:27;27.67;;;4.77;;
6292;SDS011;3179;54.350;10.102;2023-02-21T07:07:58;22.70;;;4.90;;
6292;SDS011;3179;54.350;10.102;2023-02-21T07:10:25;29.40;;;4.20;;
6292;SDS011;3179;54.350;10.102;2023-02-21T07:12:52;16.37;;;3.73;;
6292;SDS011;3179;54.350;10.102;2023-02-21T07:15:18;16.80;;;3.60;;
6292;SDS011;3179;54.350;10.102;2023-02-21T07:17:45;19.93;;;4.10;;
6292;SDS011;3179;54.350;10.102;2023-02-21T07:20:13;21.73;;;4.67;;
6292;SDS011;3179;54.350;10.102;2023-02-21T07:22:40;20.20;;;4.17;;
6292;SDS011;3179;54.350;10.102;2023-02-21T07:25:07;16.90;;;4.00;;
6292;SDS011;3179;54.350;10.102;2023-02-21T07:27:34;26.83;;;5.67;;
6292;SDS011;3179;54.350;10.102;2023-02-21T07:30:00;23.73;;;5.03;;
6292;SDS011;3179;54.350;10.102;2023-02-21T07:32:27;22.93;;;4.33;;
6292;SDS011;3179;54.350;10.102;2023-02-21T07:34:54;30.67;;;5.10;;
6292;SDS011;3179;54.350;10.102;2023-02-21T07:37:22;24.47;;;4.93;;
6292;SDS011;3179;54.350;10.102;2023-02-21T07:39:51;24.37;;;4.50;;
6292;SDS011;3179;54.350;10.102;2023-02-21T07:42:18;19.00;;;4.03;;
6292;SDS011;3179;54.350;10.102;2023-02-21T07:44:45;21.17;;;5.10;;
6292;SDS011;3179;54.350;10.102;2023-02-21T07:47:11;20.53;;;4.67;;
6292;SDS011;3179;54.350;10.102;2023-02-21T07:49:39;21.37;;;4.03;;
6292;SDS011;3179;54.350;10.102;2023-02-21T07:52:06;26.90;;;3.30;;
6292;SDS011;3179;54.350;10.102;2023-02-21T07:54:34;20.03;;;4.40;;
6292;SDS011;3179;54.350;10.102;2023-02-21T07:57:01;25.90;;;5.20;;
6292;SDS011;3179;54.350;10.102;2023-02-21T07:59:28;19.17;;;4.10;;
6292;SDS011;3179;54.350;10.102;2023-02-21T08:01:55;29.80;;;4.17;;
6292;SDS011;3179;54.350;10.102;2023-02-21T08:04:21;28.77;;;4.20;;
6292;SDS011;3179;54.350;10.102;2023-02-21T08:06:49;19.30;;;4.43;;
6292;SDS011;3179;54.350;10.102;2023-02-21T08:09:16;27.43;;;4.70;;
6292;SDS011;3179;54.350;10.102;2023-02-21T08:11:44;26.33;;;4.80;;
6292;SDS011;3179;54.350;10.102;2023-02-21T08:14:13;17.53;;;4.47;;
6292;SDS011;3179;54.350;10.102;2023-02-21T08:16:40;23.80;;;4.20;;
6292;SDS011;3179;54.350;10.102;2023-02-21T08:19:06;31.03;;;4.60;;
6292;SDS011;3179;54.350;10.102;2023-02-21T08:21:33;19.20;;;4.83;;
6292;SDS011;3179;54.350;10.102;2023-02-21T08:24:00;23.23;;;4.33;;
6292;SDS011;3179;54.350;10.102;2023-02-21T08:26:27;17.83;;;4.13;;
6292;SDS011;3179;54.350;10.102;2023-02-21T08:28:56;22.90;;;4.30;;
6292;SDS011;3179;54.350;10.102;2023-02-21T08:31:22;22.30;;;5.30;;
6292;SDS011;3179;54.350;10.102;2023-02-21T08:33:50;23.10;;;4.93;;
6292;SDS011;3179;54.350;10.102;2023-02-21T08:36:17;27.67;;;5.40;;
6292;SDS011;3179;54.350;10.102;2023-02-21T08:38:44;15.13;;;3.83;;
6292;SDS011;3179;54.350;10.102;2023-02-21T08:41:10;27.97;;;5.63;;
6292;SDS011;3179;54.350;10.102;2023-02-21T08:43:37;26.53;;;4.63;;
6292;SDS011;3179;54.350;10.102;2023-02-21T08:46:05;24.33;;;4.80;;
6292;SDS011;3179;54.350;10.102;2023-02-21T08:48:33;32.13;;;4.90;;
6292;SDS011;3179;54.350;10.102;2023-02-21T08:50:59;17.67;;;4.50;;
6292;SDS011;3179;54.350;10.102;2023-02-21T08:53:28;19.37;;;4.40;;
6292;SDS011;3179;54.350;10.102;2023-02-21T08:55:54;24.33;;;5.17;;
6292;SDS011;3179;54.350;10.102;2023-02-21T08:58:21;20.83;;;4.47;;
6292;SDS011;3179;54.350;10.102;2023-02-21T09:00:48;28.37;;;4.57;;
6292;SDS011;3179;54.350;10.102;2023-02-21T09:03:16;30.30;;;5.73;;
6292;SDS011;3179;54.350;10.102;2023-02-21T09:05:43;23.47;;;4.73;;
6292;SDS011;3179;54.350;10.102;2023-02-21T09:08:10;27.37;;;4.73;;
6292;SDS011;3179;54.350;10.102;2023-02-21T09:10:37;30.13;;;4.97;;
6292;SDS011;3179;54.350;10.102;2023-02-21T09:13:11;24.47;;;5.10;;
6292;SDS011;3179;54.350;10.102;2023-02-21T09:15:38;16.73;;;4.20;;
6292;SDS011;3179;54.350;10.102;2023-02-21T09:18:04;37.17;;;5.57;;
6292;SDS011;3179;54.350;10.102;2023-02-21T09:20:33;31.63;;;5.53;;
6292;SDS011;3179;54.350;10.102;2023-02-21T09:23:01;28.13;;;5.13;;
6292;SDS011;3179;54.350;10.102;2023-02-21T09:25:28;23.47;;;5.30;;
6292;SDS011;3179;54.350;10.102;2023-02-21T09:27:55;19.40;;;5.30;;
6292;SDS011;3179;54.350;10.102;2023-02-21T09:30:24;25.67;;;5.07;;
6292;SDS011;3179;54.350;10.102;2023-02-21T09:32:53;19.03;;;4.63;;
6292;SDS011;3179;54.350;10.102;2023-02-21T09:35:20;21.13;;;4.33;;
6292;SDS011;3179;54.350;10.102;2023-02-21T09:37:49;20.37;;;4.57;;
6292;SDS011;3179;54.350;10.102;2023-02-21T09:40:17;24.37;;;4.70;;
6292;SDS011;3179;54.350;10.102;2023-02-21T09:42:52;21.77;;;5.00;;
6292;SDS011;3179;54.350;10.102;2023-02-21T09:45:27;23.43;;;4.70;;
6292;SDS011;3179;54.350;10.102;2023-02-21T09:47:58;28.40;;;5.13;;
6292;SDS011;3179;54.350;10.102;2023-02-21T09:50:33;37.87;;;5.10;;
6292;SDS011;3179;54.350;10.102;2023-02-21T09:53:06;25.03;;;5.10;;
6292;SDS011;3179;54.350;10.102;2023-02-21T09:55:33;35.20;;;4.70;;
6292;SDS011;3179;54.350;10.102;2023-02-21T09:58:04;21.33;;;4.80;;
6292;SDS011;3179;54.350;10.102;2023-02-21T10:00:35;28.10;;;4.90;;
6292;SDS011;3179;54.350;10.102;2023-02-21T10:03:07;22.47;;;5.00;;
6292;SDS011;3179;54.350;10.102;2023-02-21T10:05:50;23.27;;;4.80;;
6292;SDS011;3179;54.350;10.102;2023-02-21T10:08:25;30.53;;;4.50;;
6292;SDS011;3179;54.350;10.102;2023-02-21T10:11:02;21.63;;;4.40;;
6292;SDS011;3179;54.350;10.102;2023-02-21T10:13:42;18.40;;;3.73;;
6292;SDS011;3179;54.350;10.102;2023-02-21T10:16:15;22.53;;;4.10;;
6292;SDS011;3179;54.350;10.102;2023-02-21T10:18:47;17.20;;;4.27;;
6292;SDS011;3179;54.350;10.102;2023-02-21T10:21:24;28.30;;;6.60;;
6292;SDS011;3179;54.350;10.102;2023-02-21T10:23:58;28.80;;;4.83;;
6292;SDS011;3179;54.350;10.102;2023-02-21T10:26:30;19.20;;;4.40;;
6292;SDS011;3179;54.350;10.102;2023-02-21T10:29:06;18.13;;;3.90;;
6292;SDS011;3179;54.350;10.102;2023-02-21T10:31:43;19.93;;;4.40;;
6292;SDS011;3179;54.350;10.102;2023-02-21T10:34:15;25.70;;;4.10;;
6292;SDS011;3179;54.350;10.102;2023-02-21T10:36:48;28.30;;;4.50;;
6292;SDS011;3179;54.350;10.102;2023-02-21T10:39:18;24.93;;;5.10;;
6292;SDS011;3179;54.350;10.102;2023-02-21T10:41:46;22.37;;;4.90;;
6292;SDS011;3179;54.350;10.102;2023-02-21T10:44:15;25.33;;;4.43;;
6292;SDS011;3179;54.350;10.102;2023-02-21T10:46:46;16.17;;;4.10;;
6292;SDS011;3179;54.350;10.102;2023-02-21T10:49:20;19.30;;;5.10;;
6292;SDS011;3179;54.350;10.102;2023-02-21T10:52:03;15.83;;;3.80;;
6292;SDS011;3179;54.350;10.102;2023-02-21T10:54:35;20.07;;;4.63;;
6292;SDS011;3179;54.350;10.102;2023-02-21T10:57:03;19.47;;;4.37;;
6292;SDS011;3179;54.350;10.102;2023-02-21T10:59:33;16.33;;;3.67;;
6292;SDS011;3179;54.350;10.102;2023-02-21T11:02:03;17.87;;;4.03;;
6292;SDS011;3179;54.350;10.102;2023-02-21T11:04:55;25.60;;;6.10;;
6292;SDS011;3179;54.350;10.102;2023-02-21T11:07:34;22.73;;;6.13;;
6292;SDS011;3179;54.350;10.102;2023-02-21T11:10:05;25.83;;;5.27;;
6292;SDS011;3179;54.350;10.102;2023-02-21T11:13:00;21.80;;;5.27;;
6292;SDS011;3179;54.350;10.102;2023-02-21T11:15:28;18.93;;;5.40;;
6292;SDS011;3179;54.350;10.102;2023-02-21T11:18:05;19.80;;;4.30;;
6292;SDS011;3179;54.350;10.102;2023-02-21T11:20:41;19.20;;;4.33;;
6292;SDS011;3179;54.350;10.102;2023-02-21T11:23:18;21.77;;;4.57;;
6292;SDS011;3179;54.350;10.102;2023-02-21T11:25:48;19.00;;;4.20;;
6292;SDS011;3179;54.350;10.102;2023-02-21T11:28:21;16.33;;;4.27;;
6292;SDS011;3179;54.350;10.102;2023-02-21T11:30:49;19.40;;;4.70;;
6292;SDS011;3179;54.350;10.102;2023-02-21T11:33:30;22.87;;;5.80;;
6292;SDS011;3179;54.350;10.102;2023-02-21T11:36:05;32.27;;;5.93;;
6292;SDS011;3179;54.350;10.102;2023-02-21T11:38:36;17.30;;;4.57;;
6292;SDS011;3179;54.350;10.102;2023-02-21T11:41:16;24.63;;;4.90;;
6292;SDS011;3179;54.350;10.102;2023-02-21T11:43:46;22.87;;;5.70;;
6292;SDS011;3179;54.350;10.102;2023-02-21T11:46:20;23.77;;;5.43;;
6292;SDS011;3179;54.350;10.102;2023-02-21T11:49:00;26.27;;;4.70;;
6292;SDS011;3179;54.350;10.102;2023-02-21T11:51:32;19.10;;;4.23;;
6292;SDS011;3179;54.350;10.102;2023-02-21T11:54:03;15.97;;;3.70;;
6292;SDS011;3179;54.350;10.102;2023-02-21T11:56:35;23.17;;;5.63;;
6292;SDS011;3179;54.350;10.102;2023-02-21T11:59:22;20.47;;;4.90;;
6292;SDS011;3179;54.350;10.102;2023-02-21T12:01:58;18.70;;;4.10;;
6292;SDS011;3179;54.350;10.102;2023-02-21T12:04:44;22.00;;;4.97;;
6292;SDS011;3179;54.350;10.102;2023-02-21T12:07:27;18.07;;;4.83;;
6292;SDS011;3179;54.350;10.102;2023-02-21T12:10:02;18.93;;;4.73;;
6292;SDS011;3179;54.350;10.102;2023-02-21T12:12:40;18.30;;;4.23;;
6292;SDS011;3179;54.350;10.102;2023-02-21T12:15:16;32.93;;;4.73;;
6292;SDS011;3179;54.350;10.102;2023-02-21T12:17:51;31.80;;;4.93;;
6292;SDS011;3179;54.350;10.102;2023-02-21T12:20:32;22.07;;;4.50;;
6292;SDS011;3179;54.350;10.102;2023-02-21T12:23:13;29.13;;;4.87;;
6292;SDS011;3179;54.350;10.102;2023-02-21T12:25:49;24.43;;;4.10;;
6292;SDS011;3179;54.350;10.102;2023-02-21T12:28:28;24.20;;;4.90;;
6292;SDS011;3179;54.350;10.102;2023-02-21T12:31:11;19.30;;;4.10;;
6292;SDS011;3179;54.350;10.102;2023-02-21T12:33:49;17.23;;;4.50;;
6292;SDS011;3179;54.350;10.102;2023-02-21T12:36:28;23.47;;;4.83;;
6292;SDS011;3179;54.350;10.102;2023-02-21T12:39:14;18.90;;;4.67;;
6292;SDS011;3179;54.350;10.102;2023-02-21T12:41:54;19.60;;;4.53;;
6292;SDS011;3179;54.350;10.102;2023-02-21T12:44:47;18.10;;;5.30;;
6292;SDS011;3179;54.350;10.102;2023-02-21T12:47:20;15.80;;;3.70;;
6292;SDS011;3179;54.350;10.102;2023-02-21T12:49:54;17.73;;;4.27;;
6292;SDS011;3179;54.350;10.102;2023-02-21T12:52:26;14.00;;;3.83;;
6292;SDS011;3179;54.350;10.102;2023-02-21T12:54:58;24.33;;;5.33;;
6292;SDS011;3179;54.350;10.102;2023-02-21T12:57:30;18.37;;;4.30;;
6292;SDS011;3179;54.350;10.102;2023-02-21T13:00:05;21.80;;;4.43;;
6292;SDS011;3179;54.350;10.102;2023-02-21T13:02:42;17.00;;;4.90;;
6292;SDS011;3179;54.350;10.102;2023-02-21T13:05:16;15.77;;;3.87;;
6292;SDS011;3179;54.350;10.102;2023-02-21T13:07:46;21.10;;;4.53;;
6292;SDS011;3179;54.350;10.102;2023-02-21T13:10:18;19.87;;;4.63;;
6292;SDS011;3179;54.350;10.102;2023-02-21T13:12:49;21.87;;;4.27;;
6292;SDS011;3179;54.350;10.102;2023-02-21T13:15:27;14.50;;;4.60;;
6292;SDS011;3179;54.350;10.102;2023-02-21T13:17:57;16.47;;;3.70;;
6292;SDS011;3179;54.350;10.102;2023-02-21T13:20:27;19.03;;;4.97;;
6292;SDS011;3179;54.350;10.102;2023-02-21T13:26:14;25.00;;;4.40;;
6292;SDS011;3179;54.350;10.102;2023-02-21T13:28:51;16.03;;;3.90;;
6292;SDS011;3179;54.350;10.102;2023-02-21T13:31:21;22.00;;;4.80;;
6292;SDS011;3179;54.350;10.102;2023-02-21T13:33:50;18.80;;;4.50;;
6292;SDS011;3179;54.350;10.102;2023-02-21T13:36:21;25.80;;;4.50;;
6292;SDS011;3179;54.350;10.102;2023-02-21T13:38:58;18.83;;;3.60;;
6292;SDS011;3179;54.350;10.102;2023-02-21T13:41:28;22.30;;;4.73;;
6292;SDS011;3179;54.350;10.102;2023-02-21T13:43:59;25.57;;;4.13;;
6292;SDS011;3179;54.350;10.102;2023-02-21T13:49:41;20.03;;;4.13;;
6292;SDS011;3179;54.350;10.102;2023-02-21T13:55:24;17.13;;;3.80;;
6292;SDS011;3179;54.350;10.102;2023-02-21T14:00:55;15.50;;;4.20;;
6292;SDS011;3179;54.350;10.102;2023-02-21T14:03:39;19.33;;;4.73;;
6292;SDS011;3179;54.350;10.102;2023-02-21T14:08:58;17.77;;;3.60;;
6292;SDS011;3179;54.350;10.102;2023-02-21T14:11:29;17.63;;;4.30;;
6292;SDS011;3179;54.350;10.102;2023-02-21T14:14:02;16.03;;;3.43;;
6292;SDS011;3179;54.350;10.102;2023-02-21T14:16:32;21.47;;;4.30;;
6292;SDS011;3179;54.350;10.102;2023-02-21T14:19:02;11.77;;;3.60;;
6292;SDS011;3179;54.350;10.102;2023-02-21T14:21:33;20.57;;;4.10;;
6292;SDS011;3179;54.350;10.102;2023-02-21T14:24:04;19.37;;;4.57;;
6292;SDS011;3179;54.350;10.102;2023-02-21T14:26:41;16.30;;;3.63;;
6292;SDS011;3179;54.350;10.102;2023-02-21T14:31:56;13.30;;;3.63;;
6292;SDS011;3179;54.350;10.102;2023-02-21T14:34:50;20.13;;;3.87;;
6292;SDS011;3179;54.350;10.102;2023-02-21T14:37:21;17.23;;;4.40;;
6292;SDS011;3179;54.350;10.102;2023-02-21T14:39:52;13.73;;;3.70;;
6292;SDS011;3179;54.350;10.102;2023-02-21T14:42:24;13.87;;;4.20;;
6292;SDS011;3179;54.350;10.102;2023-02-21T14:45:06;18.97;;;4.20;;
6292;SDS011;3179;54.350;10.102;2023-02-21T14:47:56;12.90;;;3.40;;
6292;SDS011;3179;54.350;10.102;2023-02-21T14:51:07;18.70;;;4.47;;
6292;SDS011;3179;54.350;10.102;2023-02-21T15:00:00;15.67;;;4.37;;
6292;SDS011;3179;54.350;10.102;2023-02-21T15:02:38;16.57;;;3.50;;
6292;SDS011;3179;54.350;10.102;2023-02-21T15:05:10;17.90;;;4.33;;
6292;SDS011;3179;54.350;10.102;2023-02-21T15:07:50;13.90;;;3.10;;
6292;SDS011;3179;54.350;10.102;2023-02-21T15:10:23;13.60;;;3.57;;
6292;SDS011;3179;54.350;10.102;2023-02-21T15:12:51;17.03;;;3.50;;
6292;SDS011;3179;54.350;10.102;2023-02-21T15:15:21;25.87;;;4.33;;
6292;SDS011;3179;54.350;10.102;2023-02-21T15:17:57;15.33;;;3.63;;
6292;SDS011;3179;54.350;10.102;2023-02-21T15:20:29;15.60;;;3.43;;
6292;SDS011;3179;54.350;10.102;2023-02-21T15:23:00;13.17;;;3.47;;
6292;SDS011;3179;54.350;10.102;2023-02-21T15:25:32;12.67;;;3.40;;
6292;SDS011;3179;54.350;10.102;2023-02-21T15:28:02;13.13;;;3.13;;
6292;SDS011;3179;54.350;10.102;2023-02-21T15:30:32;11.63;;;3.40;;
6292;SDS011;3179;54.350;10.102;2023-02-21T15:33:04;11.27;;;2.80;;
6292;SDS011;3179;54.350;10.102;2023-02-21T15:35:44;18.70;;;4.17;;
6292;SDS011;3179;54.350;10.102;2023-02-21T15:38:17;15.53;;;3.17;;
6292;SDS011;3179;54.350;10.102;2023-02-21T15:40:48;11.90;;;3.20;;
6292;SDS011;3179;54.350;10.102;2023-02-21T15:43:23;13.63;;;3.90;;
6292;SDS011;3179;54.350;10.102;2023-02-21T15:45:55;17.90;;;4.00;;
6292;SDS011;3179;54.350;10.102;2023-02-21T15:48:24;11.43;;;3.23;;
6292;SDS011;3179;54.350;10.102;2023-02-21T15:50:51;17.57;;;3.40;;
6292;SDS011;3179;54.350;10.102;2023-02-21T15:53:20;12.50;;;3.37;;
6292;SDS011;3179;54.350;10.102;2023-02-21T15:55:48;17.87;;;3.30;;